createdAt,value
2019-05-25T00:00:38.522Z,12.29
2019-05-25T00:03:04.382Z,12.43
2019-05-25T00:05:30.479Z,12.51
2019-05-25T00:07:56.308Z,12.36
2019-05-25T00:10:22.179Z,12.50
2019-05-25T00:12:48.043Z,12.22
2019-05-25T00:15:14.124Z,11.95
2019-05-25T00:17:39.982Z,12.24
2019-05-25T00:20:05.945Z,12.42
2019-05-25T00:22:31.798Z,12.31
2019-05-25T00:24:58.462Z,12.13
2019-05-25T00:27:24.332Z,12.05
2019-05-25T00:29:50.182Z,11.93
2019-05-25T00:32:16.052Z,11.79
2019-05-25T00:34:41.915Z,11.87
2019-05-25T00:37:07.782Z,11.82
2019-05-25T00:39:33.649Z,11.69
2019-05-25T00:41:59.522Z,11.64
2019-05-25T00:44:25.404Z,11.77
2019-05-25T00:46:51.235Z,11.69
2019-05-25T00:49:17.099Z,11.85
2019-05-25T00:51:43.179Z,11.38
2019-05-25T00:54:09.263Z,11.38
2019-05-25T00:56:35.120Z,11.36
2019-05-25T00:59:01.084Z,11.30
2019-05-25T01:01:26.932Z,11.34
2019-05-25T01:03:52.791Z,11.27
2019-05-25T01:06:18.663Z,11.20
2019-05-25T01:08:44.518Z,11.20
2019-05-25T01:11:10.383Z,11.21
2019-05-25T01:13:36.241Z,10.98
2019-05-25T01:16:02.216Z,11.04
2019-05-25T01:18:28.078Z,11.04
2019-05-25T01:20:53.944Z,10.97
2019-05-25T01:23:19.802Z,11.01
2019-05-25T01:25:45.680Z,11.28
2019-05-25T01:28:11.628Z,11.28
2019-05-25T01:30:37.462Z,11.08
2019-05-25T01:33:03.339Z,11.12
2019-05-25T01:35:29.203Z,10.89
2019-05-25T01:37:55.067Z,10.80
2019-05-25T01:40:21.127Z,10.99
2019-05-25T01:42:46.992Z,10.92
2019-05-25T01:45:13.073Z,11.06
2019-05-25T01:47:38.931Z,11.07
2019-05-25T01:50:05.614Z,11.03
2019-05-25T01:52:31.454Z,10.82
2019-05-25T01:55:00.132Z,10.87
2019-05-25T01:57:25.078Z,10.81
2019-05-25T01:59:50.945Z,10.82
2019-05-25T02:02:17.824Z,10.84
2019-05-25T02:04:43.690Z,10.60
2019-05-25T02:07:09.541Z,10.60
2019-05-25T02:09:35.468Z,10.48
2019-05-25T02:12:01.332Z,10.56
2019-05-25T02:14:27.195Z,10.68
2019-05-25T02:16:53.053Z,10.58
2019-05-25T02:19:18.912Z,10.62
2019-05-25T02:21:44.775Z,10.63
2019-05-25T02:24:10.631Z,10.57
2019-05-25T02:26:36.497Z,10.60
2019-05-25T02:29:02.865Z,10.60
2019-05-25T02:31:28.713Z,10.46
2019-05-25T02:33:54.584Z,10.53
2019-05-25T02:36:20.967Z,10.48
2019-05-25T02:38:46.893Z,10.48
2019-05-25T02:41:12.751Z,10.30
2019-05-25T02:43:38.631Z,10.18
2019-05-25T02:46:04.484Z,10.18
2019-05-25T02:48:30.346Z,10.41
2019-05-25T02:50:56.213Z,10.33
2019-05-25T02:53:22.060Z,10.44
2019-05-25T02:55:47.933Z,10.47
2019-05-25T02:58:13.784Z,10.33
2019-05-25T03:00:39.634Z,10.39
2019-05-25T03:03:05.667Z,10.12
2019-05-25T03:05:31.716Z,10.12
2019-05-25T03:07:57.996Z,10.15
2019-05-25T03:10:23.840Z,10.18
2019-05-25T03:12:50.098Z,10.26
2019-05-25T03:15:16.096Z,10.09
2019-05-25T03:17:41.920Z,10.13
2019-05-25T03:20:08.176Z,10.05
2019-05-25T03:22:33.984Z,10.01
2019-05-25T03:24:59.859Z,9.80
2019-05-25T03:27:25.728Z,9.81
2019-05-25T03:29:51.577Z,9.80
2019-05-25T03:32:17.935Z,9.83
2019-05-25T03:34:43.794Z,9.72
2019-05-25T03:37:09.721Z,9.67
2019-05-25T03:39:35.608Z,9.70
2019-05-25T03:42:01.459Z,9.74
2019-05-25T03:44:27.315Z,9.61
2019-05-25T03:46:53.170Z,9.39
2019-05-25T03:49:19.018Z,9.60
2019-05-25T03:51:44.884Z,9.60
2019-05-25T03:54:10.750Z,9.56
2019-05-25T03:56:36.593Z,9.48
2019-05-25T03:59:02.551Z,9.55
2019-05-25T04:01:28.421Z,9.38
2019-05-25T04:03:54.282Z,9.49
2019-05-25T04:06:20.228Z,9.48
2019-05-25T04:08:46.151Z,9.57
2019-05-25T04:11:12.007Z,9.37
2019-05-25T04:13:37.978Z,9.26
2019-05-25T04:16:03.845Z,9.40
2019-05-25T04:18:29.994Z,9.49
2019-05-25T04:20:55.847Z,9.52
2019-05-25T04:23:21.716Z,9.49
2019-05-25T04:25:47.620Z,9.46
2019-05-25T04:28:13.442Z,9.58
2019-05-25T04:30:39.333Z,9.51
2019-05-25T04:33:05.199Z,9.45
2019-05-25T04:35:31.050Z,9.58
2019-05-25T04:37:56.943Z,9.42
2019-05-25T04:40:23.282Z,9.42
2019-05-25T04:42:49.367Z,9.75
2019-05-25T04:45:15.722Z,9.79
2019-05-25T04:47:41.577Z,9.87
2019-05-25T04:50:07.946Z,9.93
2019-05-25T04:52:33.806Z,9.80
2019-05-25T04:54:59.665Z,9.66
2019-05-25T04:57:25.540Z,9.83
2019-05-25T04:59:51.396Z,9.77
2019-05-25T05:02:17.253Z,9.83
2019-05-25T05:04:43.227Z,10.00
2019-05-25T05:07:09.158Z,10.12
2019-05-25T05:09:35.020Z,10.27
2019-05-25T05:12:00.896Z,10.59
2019-05-25T05:14:26.742Z,10.57
2019-05-25T05:16:52.600Z,10.72
2019-05-25T05:19:18.473Z,10.94
2019-05-25T05:21:44.334Z,11.33
2019-05-25T05:24:10.200Z,11.60
2019-05-25T05:26:36.067Z,11.75
2019-05-25T05:29:01.987Z,11.93
2019-05-25T05:31:27.851Z,12.14
2019-05-25T05:33:53.714Z,12.24
2019-05-25T05:36:19.969Z,12.55
2019-05-25T05:38:46.437Z,12.81
2019-05-25T05:41:15.704Z,12.86
2019-05-25T05:43:43.876Z,12.95
2019-05-25T05:46:12.192Z,12.91
2019-05-25T05:48:39.102Z,13.09
2019-05-25T05:51:06.455Z,12.96
2019-05-25T05:53:34.607Z,12.99
2019-05-25T05:56:00.462Z,12.96
2019-05-25T05:58:26.312Z,13.05
2019-05-25T06:00:52.168Z,13.00
2019-05-25T06:03:18.030Z,13.12
2019-05-25T06:05:43.896Z,13.18
2019-05-25T06:08:09.797Z,13.43
2019-05-25T06:10:35.656Z,13.31
2019-05-25T06:13:01.506Z,13.11
2019-05-25T06:15:27.375Z,13.17
2019-05-25T06:17:53.301Z,13.01
2019-05-25T06:20:19.474Z,13.16
2019-05-25T06:22:45.321Z,13.30
2019-05-25T06:25:11.427Z,13.36
2019-05-25T06:27:37.285Z,13.26
2019-05-25T06:30:05.446Z,13.31
2019-05-25T06:32:31.319Z,13.37
2019-05-25T06:34:57.173Z,13.53
2019-05-25T06:37:23.033Z,13.53
2019-05-25T06:39:48.905Z,13.67
2019-05-25T06:42:14.773Z,13.79
2019-05-25T06:44:40.640Z,13.97
2019-05-25T06:47:06.498Z,14.00
2019-05-25T06:49:32.372Z,14.02
2019-05-25T06:51:58.301Z,14.10
2019-05-25T06:54:24.250Z,14.31
2019-05-25T06:56:50.120Z,14.11
2019-05-25T06:59:15.977Z,13.90
2019-05-25T07:01:41.839Z,14.09
2019-05-25T07:04:07.716Z,14.10
2019-05-25T07:06:33.581Z,14.10
2019-05-25T07:08:59.439Z,14.11
2019-05-25T07:11:25.405Z,14.29
2019-05-25T07:13:51.289Z,14.60
2019-05-25T07:16:17.157Z,14.78
2019-05-25T07:18:43.012Z,15.32
2019-05-25T07:21:08.881Z,16.05
2019-05-25T07:23:34.738Z,16.20
2019-05-25T07:26:00.596Z,15.50
2019-05-25T07:28:26.464Z,15.92
2019-05-25T07:30:52.322Z,16.45
2019-05-25T07:33:18.186Z,16.53
2019-05-25T07:35:44.161Z,16.17
2019-05-25T07:38:10.013Z,16.11
2019-05-25T07:40:35.898Z,15.55
2019-05-25T07:43:01.755Z,15.36
2019-05-25T07:45:27.614Z,15.17
2019-05-25T07:47:53.484Z,15.11
2019-05-25T07:50:19.552Z,14.99
2019-05-25T07:52:45.402Z,14.95
2019-05-25T07:55:11.578Z,14.83
2019-05-25T07:57:37.449Z,14.93
2019-05-25T08:00:04.603Z,15.06
2019-05-25T08:02:30.479Z,14.84
2019-05-25T08:04:56.346Z,14.99
2019-05-25T08:07:22.210Z,15.14
2019-05-25T08:09:48.163Z,15.00
2019-05-25T08:12:14.123Z,15.18
2019-05-25T08:14:39.987Z,14.81
2019-05-25T08:17:05.868Z,14.75
2019-05-25T08:19:31.715Z,14.72
2019-05-25T08:21:57.576Z,15.01
2019-05-25T08:24:23.526Z,15.08
2019-05-25T08:26:49.384Z,15.10
2019-05-25T08:29:15.242Z,15.06
2019-05-25T08:31:41.119Z,15.14
2019-05-25T08:34:06.974Z,15.09
2019-05-25T08:36:32.838Z,15.10
2019-05-25T08:38:58.698Z,15.08
2019-05-25T08:41:24.643Z,14.87
2019-05-25T08:43:50.492Z,14.80
2019-05-25T08:46:16.357Z,14.75
2019-05-25T08:48:42.209Z,15.05
2019-05-25T08:51:08.067Z,15.19
2019-05-25T08:53:41.648Z,15.84
2019-05-25T08:56:01.722Z,16.22
2019-05-25T08:58:27.560Z,15.88
2019-05-25T09:00:53.458Z,16.20
2019-05-25T09:03:19.305Z,16.63
2019-05-25T09:05:45.152Z,16.17
2019-05-25T09:08:11.039Z,15.85
2019-05-25T09:10:36.910Z,16.10
2019-05-25T09:13:02.779Z,16.19
2019-05-25T09:15:28.647Z,15.79
2019-05-25T09:17:54.808Z,15.84
2019-05-25T09:20:20.664Z,15.85
2019-05-25T09:22:46.529Z,16.12
2019-05-25T09:25:12.692Z,16.52
2019-05-25T09:27:38.549Z,16.40
2019-05-25T09:30:05.967Z,16.21
2019-05-25T09:32:31.833Z,16.11
2019-05-25T09:34:57.689Z,16.27
2019-05-25T09:37:23.565Z,16.53
2019-05-25T09:39:49.429Z,16.72
2019-05-25T09:42:15.277Z,17.13
2019-05-25T09:44:41.135Z,16.96
2019-05-25T09:47:06.994Z,17.50
2019-05-25T09:49:32.846Z,17.31
2019-05-25T09:51:58.716Z,17.50
2019-05-25T09:54:24.770Z,17.38
2019-05-25T09:56:50.626Z,17.84
2019-05-25T09:59:19.962Z,18.09
2019-05-25T10:01:44.237Z,18.59
2019-05-25T10:04:10.087Z,18.21
2019-05-25T10:06:35.943Z,17.63
2019-05-25T10:09:04.001Z,18.00
2019-05-25T10:11:30.729Z,18.18
2019-05-25T10:13:56.577Z,17.89
2019-05-25T10:16:22.434Z,18.13
2019-05-25T10:18:48.300Z,17.88
2019-05-25T10:21:15.064Z,18.06
2019-05-25T10:23:41.025Z,18.16
2019-05-25T10:26:06.908Z,18.43
2019-05-25T10:28:32.762Z,18.67
2019-05-25T10:30:58.617Z,18.85
2019-05-25T10:33:24.473Z,18.63
2019-05-25T10:35:50.321Z,19.01
2019-05-25T10:38:16.168Z,18.48
2019-05-25T10:40:42.882Z,18.36
2019-05-25T10:43:08.739Z,18.36
2019-05-25T10:45:34.582Z,18.78
2019-05-25T10:48:00.444Z,18.54
2019-05-25T10:50:26.305Z,18.50
2019-05-25T10:52:52.137Z,18.49
2019-05-25T10:55:18.321Z,18.75
2019-05-25T10:57:44.184Z,18.49
2019-05-25T11:00:11.349Z,18.77
2019-05-25T11:02:37.210Z,18.60
2019-05-25T11:05:06.577Z,18.68
2019-05-25T11:07:32.451Z,18.91
2019-05-25T11:09:58.300Z,18.87
2019-05-25T11:12:26.130Z,18.51
2019-05-25T11:14:51.932Z,18.51
2019-05-25T11:17:17.789Z,18.40
2019-05-25T11:19:43.649Z,18.64
2019-05-25T11:22:09.498Z,18.53
2019-05-25T11:24:35.346Z,18.49
2019-05-25T11:27:01.333Z,18.28
2019-05-25T11:29:27.185Z,17.91
2019-05-25T11:31:56.467Z,18.04
2019-05-25T11:34:20.833Z,18.08
2019-05-25T11:36:46.691Z,18.34
2019-05-25T11:39:12.570Z,18.41
2019-05-25T11:41:38.442Z,18.53
2019-05-25T11:44:04.306Z,18.42
2019-05-25T11:46:30.179Z,18.71
2019-05-25T11:48:56.046Z,18.60
2019-05-25T11:51:21.905Z,18.55
2019-05-25T11:53:47.811Z,18.31
2019-05-25T11:56:13.634Z,18.67
2019-05-25T11:58:47.468Z,18.66
2019-05-25T12:01:07.253Z,18.69
2019-05-25T12:03:33.115Z,18.79
2019-05-25T12:05:58.988Z,18.98
2019-05-25T12:08:24.832Z,18.94
2019-05-25T12:10:50.690Z,19.02
2019-05-25T12:13:16.545Z,19.05
2019-05-25T12:15:42.430Z,19.31
2019-05-25T12:18:08.298Z,19.41
2019-05-25T12:20:34.258Z,19.27
2019-05-25T12:23:00.245Z,19.39
2019-05-25T12:25:26.105Z,19.74
2019-05-25T12:27:51.969Z,19.57
2019-05-25T12:30:18.632Z,20.02
2019-05-25T12:32:44.479Z,19.97
2019-05-25T12:35:10.751Z,19.26
2019-05-25T12:37:36.767Z,19.18
2019-05-25T12:40:04.081Z,19.02
2019-05-25T12:42:29.937Z,18.81
2019-05-25T12:44:55.797Z,19.06
2019-05-25T12:47:21.657Z,19.17
2019-05-25T12:49:51.028Z,19.01
2019-05-25T12:52:15.262Z,18.96
2019-05-25T12:54:41.126Z,19.20
2019-05-25T12:57:06.978Z,19.04
2019-05-25T12:59:32.836Z,18.92
2019-05-25T13:01:58.689Z,18.73
2019-05-25T13:04:24.561Z,18.88
2019-05-25T13:06:50.506Z,18.89
2019-05-25T13:09:16.371Z,18.91
2019-05-25T13:11:42.228Z,18.67
2019-05-25T13:14:14.697Z,18.87
2019-05-25T13:16:36.730Z,18.67
2019-05-25T13:19:02.881Z,18.57
2019-05-25T13:21:28.732Z,18.72
2019-05-25T13:23:54.596Z,18.69
2019-05-25T13:26:20.570Z,19.00
2019-05-25T13:28:46.426Z,19.06
2019-05-25T13:31:12.444Z,19.28
2019-05-25T13:33:38.398Z,19.51
2019-05-25T13:36:04.248Z,19.38
2019-05-25T13:38:30.109Z,18.87
2019-05-25T13:40:55.974Z,19.11
2019-05-25T13:43:21.825Z,19.03
2019-05-25T13:45:47.681Z,18.87
2019-05-25T13:48:13.541Z,18.75
2019-05-25T13:50:39.389Z,18.63
2019-05-25T13:53:05.250Z,18.69
2019-05-25T13:55:31.099Z,18.63
2019-05-25T13:57:57.003Z,18.61
2019-05-25T14:00:22.961Z,18.76
2019-05-25T14:02:48.804Z,18.98
2019-05-25T14:05:14.860Z,19.08
2019-05-25T14:07:40.726Z,19.00
2019-05-25T14:10:06.997Z,18.92
2019-05-25T14:12:32.841Z,19.18
2019-05-25T14:14:58.714Z,19.07
2019-05-25T14:17:24.573Z,19.40
2019-05-25T14:19:50.423Z,19.83
2019-05-25T14:22:16.409Z,19.53
2019-05-25T14:24:42.258Z,19.56
2019-05-25T14:27:08.309Z,19.29
2019-05-25T14:29:34.168Z,19.20
2019-05-25T14:32:00.057Z,19.11
2019-05-25T14:34:25.865Z,19.23
2019-05-25T14:36:51.820Z,19.41
2019-05-25T14:39:17.786Z,19.60
2019-05-25T14:41:44.440Z,19.23
2019-05-25T14:44:10.307Z,19.35
2019-05-25T14:46:36.286Z,19.35
2019-05-25T14:49:02.467Z,19.48
2019-05-25T14:51:28.418Z,19.18
2019-05-25T14:53:54.262Z,19.17
2019-05-25T14:56:20.125Z,19.04
2019-05-25T14:58:46.086Z,19.09
2019-05-25T15:01:12.123Z,19.16
2019-05-25T15:03:38.027Z,19.14
2019-05-25T15:06:03.879Z,19.46
2019-05-25T15:08:29.764Z,19.32
2019-05-25T15:10:55.625Z,19.33
2019-05-25T15:13:21.489Z,19.52
2019-05-25T15:15:47.354Z,19.51
2019-05-25T15:18:13.215Z,19.74
2019-05-25T15:20:39.132Z,19.43
2019-05-25T15:23:05.010Z,19.59
2019-05-25T15:25:30.846Z,19.44
2019-05-25T15:27:56.704Z,19.23
2019-05-25T15:30:22.910Z,19.06
2019-05-25T15:32:48.776Z,19.08
2019-05-25T15:35:14.829Z,19.05
2019-05-25T15:37:40.681Z,19.03
2019-05-25T15:40:08.159Z,19.08
2019-05-25T15:42:34.039Z,19.23
2019-05-25T15:44:59.897Z,19.24
2019-05-25T15:47:25.768Z,19.15
2019-05-25T15:49:51.635Z,19.07
2019-05-25T15:52:17.616Z,18.82
2019-05-25T15:54:43.461Z,18.92
2019-05-25T15:57:09.321Z,19.02
2019-05-25T15:59:35.175Z,19.22
2019-05-25T16:02:01.483Z,19.11
2019-05-25T16:04:27.434Z,19.31
2019-05-25T16:06:53.281Z,19.38
2019-05-25T16:09:19.139Z,19.43
2019-05-25T16:11:45.096Z,19.49
2019-05-25T16:14:10.964Z,19.48
2019-05-25T16:16:36.784Z,19.35
2019-05-25T16:19:04.970Z,19.23
2019-05-25T16:21:30.818Z,19.04
2019-05-25T16:23:56.682Z,19.13
2019-05-25T16:26:22.546Z,19.32
2019-05-25T16:28:48.402Z,19.28
2019-05-25T16:31:14.257Z,19.26
2019-05-25T16:33:40.114Z,18.89
2019-05-25T16:36:05.972Z,19.25
2019-05-25T16:38:31.843Z,19.37
2019-05-25T16:40:57.696Z,19.33
2019-05-25T16:43:23.579Z,19.47
2019-05-25T16:45:49.442Z,19.34
2019-05-25T16:48:15.289Z,19.14
2019-05-25T16:50:41.343Z,19.10
2019-05-25T16:53:07.238Z,19.03
2019-05-25T16:55:33.079Z,18.95
2019-05-25T16:57:58.939Z,18.91
2019-05-25T17:00:26.686Z,18.87
2019-05-25T17:02:53.070Z,18.81
2019-05-25T17:05:18.924Z,19.18
2019-05-25T17:07:44.852Z,19.01
2019-05-25T17:10:10.708Z,19.07
2019-05-25T17:12:36.571Z,19.01
2019-05-25T17:15:04.631Z,18.98
2019-05-25T17:17:31.321Z,18.96
2019-05-25T17:19:57.317Z,18.95
2019-05-25T17:22:23.181Z,18.86
2019-05-25T17:24:49.044Z,18.82
2019-05-25T17:27:14.905Z,18.78
2019-05-25T17:29:40.770Z,18.64
2019-05-25T17:32:06.638Z,18.43
2019-05-25T17:34:32.500Z,18.37
2019-05-25T17:36:58.364Z,18.37
2019-05-25T17:39:24.248Z,18.22
2019-05-25T17:41:50.114Z,18.24
2019-05-25T17:44:16.055Z,18.15
2019-05-25T17:46:42.717Z,18.15
2019-05-25T17:49:08.615Z,18.11
2019-05-25T17:51:34.463Z,18.18
2019-05-25T17:54:00.319Z,18.24
2019-05-25T17:56:26.172Z,18.18
2019-05-25T17:58:52.034Z,18.28
2019-05-25T18:01:17.885Z,18.26
2019-05-25T18:03:43.752Z,18.20
2019-05-25T18:06:09.613Z,18.37
2019-05-25T18:08:35.509Z,18.41
2019-05-25T18:11:01.407Z,18.35
2019-05-25T18:13:29.107Z,18.19
2019-05-25T18:15:55.057Z,18.10
2019-05-25T18:18:20.905Z,18.00
2019-05-25T18:20:46.829Z,18.03
2019-05-25T18:23:12.683Z,18.07
2019-05-25T18:25:38.540Z,18.06
2019-05-25T18:28:04.899Z,17.98
2019-05-25T18:30:30.855Z,17.95
2019-05-25T18:32:56.718Z,17.92
2019-05-25T18:35:22.579Z,17.91
2019-05-25T18:37:48.434Z,17.81
2019-05-25T18:40:14.698Z,17.86
2019-05-25T18:42:40.561Z,17.79
2019-05-25T18:45:07.510Z,17.81
2019-05-25T18:47:33.395Z,17.82
2019-05-25T18:49:59.252Z,17.83
2019-05-25T18:52:25.111Z,17.75
2019-05-25T18:54:51.018Z,17.67
2019-05-25T18:57:16.868Z,17.65
2019-05-25T18:59:42.717Z,17.67
2019-05-25T19:02:08.580Z,17.70
2019-05-25T19:04:44.635Z,17.66
2019-05-25T19:07:02.638Z,17.73
2019-05-25T19:09:28.488Z,17.63
2019-05-25T19:11:54.464Z,17.69
2019-05-25T19:14:20.338Z,17.53
2019-05-25T19:16:46.201Z,17.52
2019-05-25T19:19:12.076Z,17.61
2019-05-25T19:21:37.927Z,17.39
2019-05-25T19:24:03.781Z,17.36
2019-05-25T19:26:29.641Z,17.40
2019-05-25T19:28:55.505Z,17.25
2019-05-25T19:31:21.464Z,17.30
2019-05-25T19:33:47.432Z,17.27
2019-05-25T19:36:13.286Z,17.20
2019-05-25T19:38:39.171Z,17.24
2019-05-25T19:41:05.048Z,17.18
2019-05-25T19:43:30.943Z,17.02
2019-05-25T19:45:56.809Z,16.85
2019-05-25T19:48:22.768Z,16.91
2019-05-25T19:50:48.638Z,16.82
2019-05-25T19:53:14.507Z,16.78
2019-05-25T19:55:40.363Z,16.70
2019-05-25T19:58:06.230Z,16.56
2019-05-25T20:00:32.090Z,16.58
2019-05-25T20:02:57.965Z,16.54
2019-05-25T20:05:23.817Z,16.56
2019-05-25T20:07:49.687Z,16.53
2019-05-25T20:10:17.554Z,16.41
2019-05-25T20:12:43.445Z,16.37
2019-05-25T20:15:10.136Z,16.30
2019-05-25T20:17:35.991Z,16.22
2019-05-25T20:20:03.269Z,16.15
2019-05-25T20:22:29.125Z,16.11
2019-05-25T20:24:55.014Z,16.16
2019-05-25T20:27:20.871Z,16.12
2019-05-25T20:29:46.814Z,15.97
2019-05-25T20:32:12.661Z,15.83
2019-05-25T20:34:38.515Z,15.83
2019-05-25T20:37:04.377Z,15.76
2019-05-25T20:39:30.319Z,15.83
2019-05-25T20:41:56.301Z,15.60
2019-05-25T20:44:22.157Z,15.59
2019-05-25T20:46:48.029Z,15.60
2019-05-25T20:49:13.983Z,15.53
2019-05-25T20:51:39.910Z,15.52
2019-05-25T20:54:05.787Z,15.62
2019-05-25T20:56:31.662Z,15.62
2019-05-25T20:58:57.628Z,15.56
2019-05-25T21:01:23.783Z,15.49
2019-05-25T21:03:49.634Z,15.40
2019-05-25T21:06:15.534Z,15.40
2019-05-25T21:08:41.409Z,15.41
2019-05-25T21:11:07.286Z,15.43
2019-05-25T21:13:33.153Z,15.43
2019-05-25T21:15:59.031Z,15.44
2019-05-25T21:18:24.873Z,15.44
2019-05-25T21:20:50.739Z,15.48
2019-05-25T21:23:16.590Z,15.50
2019-05-25T21:25:42.955Z,15.58
2019-05-25T21:28:08.811Z,15.29
2019-05-25T21:30:34.671Z,15.32
2019-05-25T21:33:00.539Z,15.33
2019-05-25T21:35:26.400Z,15.38
2019-05-25T21:37:52.260Z,15.36
2019-05-25T21:40:18.123Z,15.34
2019-05-25T21:42:43.989Z,15.43
2019-05-25T21:45:10.147Z,15.40
2019-05-25T21:47:35.998Z,15.30
2019-05-25T21:50:02.888Z,15.25
2019-05-25T21:52:28.746Z,15.18
2019-05-25T21:54:54.593Z,15.13
2019-05-25T21:57:20.653Z,15.21
2019-05-25T21:59:46.506Z,15.07
2019-05-25T22:02:12.391Z,14.94
2019-05-25T22:04:38.211Z,14.93
2019-05-25T22:07:04.880Z,14.96
2019-05-25T22:09:30.951Z,15.05
2019-05-25T22:11:56.812Z,15.06
2019-05-25T22:14:22.717Z,15.00
2019-05-25T22:16:48.716Z,14.91
2019-05-25T22:19:14.578Z,14.85
2019-05-25T22:21:40.431Z,14.84
2019-05-25T22:24:06.330Z,14.80
2019-05-25T22:26:32.197Z,14.77
2019-05-25T22:28:58.067Z,14.71
2019-05-25T22:31:23.922Z,14.81
2019-05-25T22:33:49.789Z,14.75
2019-05-25T22:36:15.651Z,14.70
2019-05-25T22:38:41.550Z,14.71
2019-05-25T22:41:07.536Z,14.63
2019-05-25T22:43:33.396Z,14.52
2019-05-25T22:45:59.283Z,14.56
2019-05-25T22:48:25.145Z,14.50
2019-05-25T22:50:51.826Z,14.43
2019-05-25T22:53:17.683Z,14.23
2019-05-25T22:55:43.580Z,14.24
2019-05-25T22:58:09.429Z,14.31
2019-05-25T23:00:35.296Z,14.35
2019-05-25T23:03:01.164Z,14.34
2019-05-25T23:05:27.009Z,14.41
2019-05-25T23:07:52.886Z,14.34
2019-05-25T23:10:18.950Z,14.26
2019-05-25T23:12:44.803Z,14.07
2019-05-25T23:15:11.177Z,14.18
2019-05-25T23:17:37.128Z,14.11
2019-05-25T23:20:05.314Z,13.98
2019-05-25T23:22:31.245Z,14.02
2019-05-25T23:24:57.103Z,13.95
2019-05-25T23:27:22.957Z,13.89
2019-05-25T23:29:48.830Z,14.00
2019-05-25T23:32:14.699Z,13.88
2019-05-25T23:34:40.553Z,14.00
2019-05-25T23:37:14.704Z,13.87
2019-05-25T23:39:34.169Z,13.73
2019-05-25T23:42:00.040Z,13.68
2019-05-25T23:44:25.907Z,13.66
2019-05-25T23:46:51.762Z,13.62
2019-05-25T23:49:17.627Z,13.56
2019-05-25T23:51:43.495Z,13.52
2019-05-25T23:54:09.351Z,13.53
2019-05-25T23:56:35.467Z,13.47
2019-05-25T23:59:01.328Z,13.40
